Auburndale, Massachusetts
Current Conditions -  °F | °C
As of 7:54 AM on Thursday 30 Oct 2014 (Local Time) from KBOS Reporting Station
Few Clouds Few Clouds  
Wind Chill: 10°   Ceiling: Unl
Heat Index: 10°   Visibility: 10mi
Dew Point:   Wind: 9mph
Humidity: 66%   Direction: 270°W
Pressure: 29.93"   Gusts: NA
Location:  42.35°N, 70.95°W
Report Text: KBOS 301154Z 27008KT 10SM FEW200 10/04 A2993 RMK AO2 SLP133 70002 T01000039 10106 20083 51011
Loading
Personal Weather Stations






























Interactive Weather Map
Tropical Storm Tracking
New forecast layout! Learn more

10-Day Weather Forecast

Advertisements
Track Severe Weather on mobile